N723AN KSBP-KFUL
Flight info
| Callsign | N723AN |
|---|---|
| Flight time | 1h 10m |
| Altitude | 7000 |
| Route | SBAP40 |
| Aircraft | C414/L-VGD/C |
Departure
| Time | 2026-05-07 04:41 |
|---|---|
| Airport | San Luis County Regional Airport (KSBP) |
Arrival
| Time | 2026-05-07 05:52 |
|---|---|
| Airport | Fullerton Municipal Airport (KFUL) |
| Time | Latitude | Longitude | Altitude | Speed | Heading |
|---|---|---|---|---|---|
| 2026-05-07 04:09 | 35.23585 | -120.63544 | 207 ft | 0 kts | 32° |
| 2026-05-07 04:30 | 35.23589 | -120.63541 | 212 ft | 3 kts | 28° |
| 2026-05-07 04:30 | 35.23587 | -120.63573 | 210 ft | 8 kts | 223° |
| 2026-05-07 04:30 | 35.23542 | -120.63568 | 212 ft | 10 kts | 134° |
| 2026-05-07 04:31 | 35.23508 | -120.63512 | 212 ft | 7 kts | 124° |
| 2026-05-07 04:31 | 35.23471 | -120.63450 | 211 ft | 9 kts | 126° |
| 2026-05-07 04:31 | 35.23427 | -120.63374 | 214 ft | 13 kts | 127° |
| 2026-05-07 04:31 | 35.23370 | -120.63270 | 217 ft | 14 kts | 124° |
| 2026-05-07 04:32 | 35.23333 | -120.63236 | 219 ft | 0 kts | 206° |
| 2026-05-07 04:35 | 35.23332 | -120.63236 | 219 ft | 0 kts | 206° |
| 2026-05-07 04:39 | 35.23330 | -120.63238 | 219 ft | 4 kts | 206° |
| 2026-05-07 04:40 | 35.23274 | -120.63286 | 218 ft | 8 kts | 263° |
| 2026-05-07 04:40 | 35.23286 | -120.63318 | 217 ft | 0 kts | 306° |
| 2026-05-07 04:40 | 35.23396 | -120.63509 | 213 ft | 58 kts | 306° |
| 2026-05-07 04:40 | 35.23717 | -120.64068 | 224 ft | 96 kts | 305° |
| 2026-05-07 04:41 | 35.24102 | -120.64746 | 403 ft | 107 kts | 304° |
| 2026-05-07 04:41 | 35.24506 | -120.65585 | 686 ft | 119 kts | 301° |
| 2026-05-07 04:41 | 35.24956 | -120.66494 | 997 ft | 129 kts | 302° |
| 2026-05-07 04:41 | 35.25439 | -120.67444 | 1339 ft | 132 kts | 302° |
| 2026-05-07 04:42 | 35.25919 | -120.68396 | 1667 ft | 131 kts | 302° |
| 2026-05-07 04:42 | 35.26395 | -120.69356 | 1978 ft | 132 kts | 302° |
| 2026-05-07 04:42 | 35.26865 | -120.70313 | 2277 ft | 131 kts | 297° |
| 2026-05-07 04:42 | 35.26829 | -120.71384 | 2537 ft | 137 kts | 244° |
| 2026-05-07 04:43 | 35.26333 | -120.72397 | 2853 ft | 139 kts | 243° |
| 2026-05-07 04:43 | 35.25844 | -120.73429 | 3165 ft | 141 kts | 243° |
| 2026-05-07 04:43 | 35.25353 | -120.74464 | 3484 ft | 140 kts | 243° |
| 2026-05-07 04:43 | 35.24859 | -120.75494 | 3791 ft | 140 kts | 243° |
| 2026-05-07 04:44 | 35.24362 | -120.76529 | 4059 ft | 141 kts | 243° |
| 2026-05-07 04:44 | 35.23882 | -120.77585 | 4311 ft | 144 kts | 234° |
| 2026-05-07 04:44 | 35.23018 | -120.78213 | 4576 ft | 151 kts | 190° |
| 2026-05-07 04:44 | 35.21997 | -120.77971 | 4839 ft | 153 kts | 147° |
| 2026-05-07 04:45 | 35.21345 | -120.77002 | 5079 ft | 151 kts | 107° |
| 2026-05-07 04:45 | 35.21190 | -120.75745 | 5324 ft | 150 kts | 98° |
| 2026-05-07 04:45 | 35.20835 | -120.74547 | 5606 ft | 152 kts | 122° |
| 2026-05-07 04:45 | 35.20181 | -120.73532 | 5873 ft | 152 kts | 129° |
| 2026-05-07 04:46 | 35.19496 | -120.72545 | 6153 ft | 152 kts | 129° |
| 2026-05-07 04:46 | 35.18803 | -120.71564 | 6425 ft | 152 kts | 130° |
| 2026-05-07 04:46 | 35.18109 | -120.70587 | 6708 ft | 152 kts | 130° |
| 2026-05-07 04:46 | 35.17411 | -120.69605 | 6979 ft | 154 kts | 129° |
| 2026-05-07 04:47 | 35.16681 | -120.68573 | 7007 ft | 170 kts | 130° |
| 2026-05-07 04:47 | 35.15875 | -120.67436 | 7010 ft | 183 kts | 130° |
| 2026-05-07 04:47 | 35.15020 | -120.66236 | 7011 ft | 191 kts | 130° |
| 2026-05-07 04:47 | 35.14134 | -120.64985 | 7011 ft | 198 kts | 130° |
| 2026-05-07 04:48 | 35.13224 | -120.63703 | 7009 ft | 201 kts | 130° |
| 2026-05-07 04:48 | 35.12301 | -120.62403 | 7009 ft | 203 kts | 130° |
| 2026-05-07 04:48 | 35.11377 | -120.61106 | 7009 ft | 202 kts | 130° |
| 2026-05-07 04:48 | 35.10460 | -120.59811 | 7007 ft | 201 kts | 130° |
| 2026-05-07 04:49 | 35.09543 | -120.58524 | 7008 ft | 201 kts | 130° |
| 2026-05-07 04:49 | 35.08628 | -120.57239 | 7008 ft | 200 kts | 130° |
| 2026-05-07 04:49 | 35.07714 | -120.55952 | 7007 ft | 200 kts | 130° |
| 2026-05-07 04:49 | 35.06812 | -120.54687 | 7006 ft | 200 kts | 130° |
| 2026-05-07 04:50 | 35.05901 | -120.53408 | 7006 ft | 199 kts | 130° |
| 2026-05-07 04:50 | 35.04990 | -120.52127 | 7005 ft | 199 kts | 130° |
| 2026-05-07 04:50 | 35.04083 | -120.50855 | 7005 ft | 199 kts | 130° |
| 2026-05-07 04:50 | 35.03175 | -120.49583 | 7005 ft | 200 kts | 130° |
| 2026-05-07 04:51 | 35.02260 | -120.48302 | 7006 ft | 200 kts | 130° |
| 2026-05-07 04:51 | 35.01350 | -120.47025 | 7007 ft | 199 kts | 130° |
| 2026-05-07 04:51 | 35.00436 | -120.45745 | 7006 ft | 200 kts | 130° |
| 2026-05-07 04:51 | 34.99524 | -120.44463 | 7003 ft | 200 kts | 130° |
| 2026-05-07 04:52 | 34.98619 | -120.43197 | 7006 ft | 200 kts | 130° |
| 2026-05-07 04:52 | 34.97705 | -120.41918 | 7006 ft | 200 kts | 130° |
| 2026-05-07 04:52 | 34.96788 | -120.40636 | 7007 ft | 200 kts | 130° |
| 2026-05-07 04:52 | 34.95874 | -120.39356 | 7007 ft | 200 kts | 130° |
| 2026-05-07 04:53 | 34.94959 | -120.38077 | 7007 ft | 200 kts | 130° |
| 2026-05-07 04:53 | 34.94045 | -120.36800 | 7002 ft | 200 kts | 130° |
| 2026-05-07 04:53 | 34.93135 | -120.35529 | 6996 ft | 199 kts | 130° |
| 2026-05-07 04:53 | 34.92222 | -120.34253 | 7005 ft | 199 kts | 130° |
| 2026-05-07 04:54 | 34.91314 | -120.32985 | 7004 ft | 199 kts | 130° |
| 2026-05-07 04:54 | 34.90406 | -120.31716 | 7004 ft | 198 kts | 130° |
| 2026-05-07 04:54 | 34.89499 | -120.30451 | 7004 ft | 199 kts | 130° |
| 2026-05-07 04:54 | 34.88588 | -120.29184 | 7000 ft | 199 kts | 130° |
| 2026-05-07 04:55 | 34.87690 | -120.27928 | 7004 ft | 199 kts | 130° |
| 2026-05-07 04:55 | 34.86767 | -120.26643 | 7004 ft | 199 kts | 130° |
| 2026-05-07 04:55 | 34.85870 | -120.25395 | 7004 ft | 199 kts | 130° |
| 2026-05-07 04:55 | 34.84956 | -120.24123 | 7002 ft | 199 kts | 130° |
| 2026-05-07 04:56 | 34.84042 | -120.22852 | 7006 ft | 200 kts | 130° |
| 2026-05-07 04:56 | 34.83126 | -120.21576 | 7006 ft | 200 kts | 130° |
| 2026-05-07 04:56 | 34.82209 | -120.20300 | 7007 ft | 200 kts | 130° |
| 2026-05-07 04:56 | 34.81292 | -120.19025 | 7008 ft | 200 kts | 130° |
| 2026-05-07 04:57 | 34.80376 | -120.17753 | 7006 ft | 200 kts | 130° |
| 2026-05-07 04:57 | 34.79462 | -120.16481 | 7007 ft | 200 kts | 130° |
| 2026-05-07 04:57 | 34.78548 | -120.15211 | 7007 ft | 200 kts | 130° |
| 2026-05-07 04:57 | 34.77631 | -120.13938 | 7001 ft | 200 kts | 130° |
| 2026-05-07 04:58 | 34.76710 | -120.12661 | 7006 ft | 200 kts | 130° |
| 2026-05-07 04:58 | 34.75804 | -120.11404 | 7007 ft | 200 kts | 130° |
| 2026-05-07 04:58 | 34.74887 | -120.10131 | 7004 ft | 200 kts | 130° |
| 2026-05-07 04:58 | 34.74267 | -120.09272 | 7004 ft | 200 kts | 130° |
| 2026-05-07 04:59 | 34.73050 | -120.07587 | 7004 ft | 200 kts | 130° |
| 2026-05-07 04:59 | 34.72132 | -120.06314 | 7008 ft | 200 kts | 130° |
| 2026-05-07 04:59 | 34.71215 | -120.05042 | 6998 ft | 200 kts | 130° |
| 2026-05-07 04:59 | 34.70593 | -120.04182 | 6998 ft | 200 kts | 130° |
| 2026-05-07 05:00 | 34.69675 | -120.02911 | 6998 ft | 200 kts | 130° |
| 2026-05-07 05:00 | 34.68760 | -120.01645 | 6994 ft | 200 kts | 130° |
| 2026-05-07 05:00 | 34.67855 | -120.00395 | 6997 ft | 199 kts | 130° |
| 2026-05-07 05:00 | 34.66937 | -119.99127 | 6996 ft | 199 kts | 131° |
| 2026-05-07 05:01 | 34.66024 | -119.97864 | 6997 ft | 199 kts | 131° |
| 2026-05-07 05:01 | 34.65112 | -119.96603 | 6996 ft | 198 kts | 131° |
| 2026-05-07 05:01 | 34.64201 | -119.95344 | 6997 ft | 199 kts | 131° |
| 2026-05-07 05:01 | 34.63288 | -119.94085 | 6996 ft | 199 kts | 130° |
| 2026-05-07 05:02 | 34.62374 | -119.92823 | 6990 ft | 199 kts | 130° |
| 2026-05-07 05:02 | 34.61458 | -119.91560 | 6991 ft | 199 kts | 131° |
| 2026-05-07 05:02 | 34.60543 | -119.90296 | 6990 ft | 199 kts | 131° |
| 2026-05-07 05:02 | 34.59626 | -119.89034 | 6978 ft | 199 kts | 131° |
| 2026-05-07 05:03 | 34.58712 | -119.87775 | 6978 ft | 198 kts | 130° |
| 2026-05-07 05:03 | 34.57800 | -119.86516 | 6970 ft | 198 kts | 131° |
| 2026-05-07 05:03 | 34.56886 | -119.85257 | 6960 ft | 199 kts | 130° |
| 2026-05-07 05:03 | 34.55982 | -119.84016 | 6960 ft | 199 kts | 131° |
| 2026-05-07 05:04 | 34.55066 | -119.82755 | 6960 ft | 198 kts | 130° |
| 2026-05-07 05:04 | 34.54152 | -119.81496 | 6952 ft | 199 kts | 131° |
| 2026-05-07 05:04 | 34.53233 | -119.80235 | 6953 ft | 199 kts | 131° |
| 2026-05-07 05:04 | 34.52313 | -119.78972 | 6941 ft | 200 kts | 131° |
| 2026-05-07 05:05 | 34.51387 | -119.77699 | 6942 ft | 201 kts | 131° |
| 2026-05-07 05:05 | 34.50546 | -119.76365 | 6939 ft | 198 kts | 122° |
| 2026-05-07 05:05 | 34.49801 | -119.74961 | 6938 ft | 198 kts | 122° |
| 2026-05-07 05:05 | 34.49042 | -119.73568 | 6939 ft | 198 kts | 123° |
| 2026-05-07 05:06 | 34.48293 | -119.72192 | 6937 ft | 198 kts | 123° |
| 2026-05-07 05:06 | 34.47537 | -119.70798 | 6935 ft | 197 kts | 122° |
| 2026-05-07 05:06 | 34.46787 | -119.69412 | 6939 ft | 197 kts | 122° |
| 2026-05-07 05:06 | 34.46034 | -119.68028 | 6937 ft | 196 kts | 122° |
| 2026-05-07 05:07 | 34.45284 | -119.66641 | 6938 ft | 196 kts | 122° |
| 2026-05-07 05:07 | 34.44534 | -119.65260 | 6947 ft | 196 kts | 122° |
| 2026-05-07 05:07 | 34.43782 | -119.63878 | 6947 ft | 197 kts | 122° |
| 2026-05-07 05:07 | 34.43028 | -119.62492 | 6948 ft | 197 kts | 122° |
| 2026-05-07 05:08 | 34.42275 | -119.61107 | 6948 ft | 197 kts | 122° |
| 2026-05-07 05:08 | 34.41521 | -119.59719 | 6948 ft | 197 kts | 122° |
| 2026-05-07 05:08 | 34.40767 | -119.58332 | 6949 ft | 197 kts | 122° |
| 2026-05-07 05:08 | 34.40012 | -119.56945 | 6949 ft | 198 kts | 122° |
| 2026-05-07 05:09 | 34.39254 | -119.55557 | 6949 ft | 197 kts | 122° |
| 2026-05-07 05:09 | 34.38508 | -119.54185 | 6949 ft | 198 kts | 123° |
| 2026-05-07 05:09 | 34.37752 | -119.52798 | 6949 ft | 197 kts | 123° |
| 2026-05-07 05:09 | 34.36995 | -119.51408 | 6949 ft | 198 kts | 123° |
| 2026-05-07 05:10 | 34.36237 | -119.50016 | 6949 ft | 198 kts | 123° |
| 2026-05-07 05:10 | 34.35476 | -119.48621 | 6949 ft | 198 kts | 123° |
| 2026-05-07 05:10 | 34.34719 | -119.47233 | 6956 ft | 197 kts | 123° |
| 2026-05-07 05:10 | 34.33969 | -119.45863 | 6956 ft | 198 kts | 123° |
| 2026-05-07 05:11 | 34.33211 | -119.44475 | 6956 ft | 198 kts | 123° |
| 2026-05-07 05:11 | 34.32452 | -119.43086 | 6956 ft | 198 kts | 123° |
| 2026-05-07 05:11 | 34.31802 | -119.41632 | 6957 ft | 196 kts | 105° |
| 2026-05-07 05:11 | 34.31741 | -119.40003 | 6957 ft | 194 kts | 83° |
| 2026-05-07 05:12 | 34.31907 | -119.38382 | 6959 ft | 194 kts | 82° |
| 2026-05-07 05:12 | 34.32046 | -119.36753 | 6960 ft | 195 kts | 83° |
| 2026-05-07 05:12 | 34.32169 | -119.35121 | 6959 ft | 194 kts | 84° |
| 2026-05-07 05:12 | 34.32291 | -119.33492 | 6962 ft | 195 kts | 84° |
| 2026-05-07 05:13 | 34.32415 | -119.31859 | 6961 ft | 195 kts | 84° |
| 2026-05-07 05:13 | 34.32542 | -119.30222 | 6963 ft | 195 kts | 83° |
| 2026-05-07 05:13 | 34.32667 | -119.28587 | 6963 ft | 196 kts | 84° |
| 2026-05-07 05:13 | 34.32791 | -119.26946 | 6964 ft | 196 kts | 84° |
| 2026-05-07 05:14 | 34.32913 | -119.25322 | 6964 ft | 196 kts | 84° |
| 2026-05-07 05:14 | 34.33038 | -119.23682 | 6963 ft | 195 kts | 84° |
| 2026-05-07 05:14 | 34.33163 | -119.22045 | 6961 ft | 195 kts | 84° |
| 2026-05-07 05:14 | 34.33285 | -119.20408 | 6963 ft | 195 kts | 84° |
| 2026-05-07 05:15 | 34.33407 | -119.18770 | 6963 ft | 196 kts | 84° |
| 2026-05-07 05:15 | 34.33530 | -119.17132 | 6964 ft | 196 kts | 84° |
| 2026-05-07 05:15 | 34.33653 | -119.15489 | 6964 ft | 196 kts | 84° |
| 2026-05-07 05:15 | 34.33775 | -119.13850 | 6964 ft | 196 kts | 84° |
| 2026-05-07 05:16 | 34.33898 | -119.12207 | 6964 ft | 196 kts | 84° |
| 2026-05-07 05:16 | 34.34021 | -119.10567 | 6964 ft | 196 kts | 84° |
| 2026-05-07 05:16 | 34.34142 | -119.08947 | 6964 ft | 196 kts | 84° |
| 2026-05-07 05:16 | 34.34265 | -119.07279 | 6964 ft | 196 kts | 84° |
| 2026-05-07 05:17 | 34.34385 | -119.05658 | 6964 ft | 196 kts | 84° |
| 2026-05-07 05:17 | 34.34507 | -119.04015 | 6965 ft | 196 kts | 84° |
| 2026-05-07 05:17 | 34.34628 | -119.02364 | 6965 ft | 197 kts | 84° |
| 2026-05-07 05:17 | 34.34751 | -119.00717 | 6966 ft | 197 kts | 84° |
| 2026-05-07 05:18 | 34.34871 | -118.99071 | 6994 ft | 195 kts | 84° |
| 2026-05-07 05:18 | 34.34991 | -118.97432 | 6993 ft | 196 kts | 84° |
| 2026-05-07 05:18 | 34.35112 | -118.95782 | 6994 ft | 197 kts | 84° |
| 2026-05-07 05:18 | 34.35233 | -118.94131 | 6991 ft | 197 kts | 84° |
| 2026-05-07 05:19 | 34.35356 | -118.92476 | 6995 ft | 198 kts | 84° |
| 2026-05-07 05:19 | 34.35474 | -118.90820 | 6995 ft | 197 kts | 84° |
| 2026-05-07 05:19 | 34.35591 | -118.89185 | 7004 ft | 197 kts | 84° |
| 2026-05-07 05:19 | 34.35503 | -118.87538 | 6998 ft | 197 kts | 107° |
| 2026-05-07 05:20 | 34.34984 | -118.86010 | 7002 ft | 197 kts | 114° |
| 2026-05-07 05:20 | 34.34433 | -118.84492 | 7009 ft | 197 kts | 112° |
| 2026-05-07 05:20 | 34.33908 | -118.82956 | 7011 ft | 198 kts | 112° |
| 2026-05-07 05:20 | 34.33382 | -118.81413 | 7011 ft | 198 kts | 112° |
| 2026-05-07 05:21 | 34.32857 | -118.79870 | 7011 ft | 198 kts | 112° |
| 2026-05-07 05:21 | 34.31805 | -118.76781 | 7012 ft | 198 kts | 112° |
| 2026-05-07 05:21 | 34.31294 | -118.75281 | 7012 ft | 198 kts | 112° |
| 2026-05-07 05:22 | 34.30774 | -118.73762 | 7012 ft | 198 kts | 112° |
| 2026-05-07 05:22 | 34.30249 | -118.72222 | 7016 ft | 198 kts | 112° |
| 2026-05-07 05:22 | 34.29723 | -118.70681 | 7006 ft | 198 kts | 112° |
| 2026-05-07 05:22 | 34.29197 | -118.69142 | 7007 ft | 198 kts | 112° |
| 2026-05-07 05:23 | 34.28669 | -118.67602 | 6999 ft | 198 kts | 112° |
| 2026-05-07 05:23 | 34.28142 | -118.66062 | 7006 ft | 198 kts | 112° |
| 2026-05-07 05:23 | 34.27616 | -118.64523 | 7006 ft | 198 kts | 112° |
| 2026-05-07 05:23 | 34.27088 | -118.62983 | 7006 ft | 198 kts | 112° |
| 2026-05-07 05:24 | 34.26568 | -118.61465 | 7006 ft | 198 kts | 112° |
| 2026-05-07 05:24 | 34.26042 | -118.59928 | 7007 ft | 198 kts | 112° |
| 2026-05-07 05:24 | 34.25513 | -118.58386 | 6994 ft | 199 kts | 112° |
| 2026-05-07 05:24 | 34.24984 | -118.56841 | 6999 ft | 199 kts | 112° |
| 2026-05-07 05:25 | 34.24452 | -118.55295 | 6998 ft | 198 kts | 112° |
| 2026-05-07 05:25 | 34.23922 | -118.53755 | 6999 ft | 198 kts | 112° |
| 2026-05-07 05:25 | 34.23393 | -118.52216 | 6999 ft | 198 kts | 112° |
| 2026-05-07 05:25 | 34.22864 | -118.50678 | 6994 ft | 198 kts | 112° |
| 2026-05-07 05:26 | 34.22339 | -118.49140 | 6998 ft | 198 kts | 110° |
| 2026-05-07 05:26 | 34.21893 | -118.47568 | 6998 ft | 198 kts | 110° |
| 2026-05-07 05:26 | 34.21407 | -118.46036 | 6998 ft | 198 kts | 110° |
| 2026-05-07 05:26 | 34.20918 | -118.44457 | 6998 ft | 198 kts | 110° |
| 2026-05-07 05:27 | 34.20451 | -118.42916 | 6992 ft | 198 kts | 110° |
| 2026-05-07 05:27 | 34.19979 | -118.41357 | 6998 ft | 198 kts | 110° |
| 2026-05-07 05:27 | 34.19506 | -118.39793 | 6999 ft | 198 kts | 110° |
| 2026-05-07 05:27 | 34.19030 | -118.38227 | 6995 ft | 198 kts | 110° |
| 2026-05-07 05:28 | 34.18558 | -118.36665 | 6994 ft | 198 kts | 110° |
| 2026-05-07 05:28 | 34.18082 | -118.35100 | 6999 ft | 199 kts | 110° |
| 2026-05-07 05:28 | 34.17606 | -118.33534 | 6999 ft | 199 kts | 110° |
| 2026-05-07 05:28 | 34.17128 | -118.31963 | 7000 ft | 199 kts | 110° |
| 2026-05-07 05:29 | 34.16651 | -118.30393 | 7001 ft | 199 kts | 110° |
| 2026-05-07 05:29 | 34.16172 | -118.28825 | 6999 ft | 199 kts | 110° |
| 2026-05-07 05:29 | 34.15696 | -118.27262 | 7001 ft | 199 kts | 110° |
| 2026-05-07 05:29 | 34.15220 | -118.25695 | 7000 ft | 198 kts | 110° |
| 2026-05-07 05:30 | 34.14749 | -118.24155 | 6998 ft | 198 kts | 110° |
| 2026-05-07 05:30 | 34.14273 | -118.22593 | 6994 ft | 198 kts | 110° |
| 2026-05-07 05:30 | 34.13797 | -118.21032 | 7000 ft | 198 kts | 110° |
| 2026-05-07 05:30 | 34.13320 | -118.19471 | 6999 ft | 198 kts | 110° |
| 2026-05-07 05:31 | 34.12842 | -118.17908 | 7000 ft | 199 kts | 110° |
| 2026-05-07 05:31 | 34.12365 | -118.16346 | 7001 ft | 198 kts | 110° |
| 2026-05-07 05:31 | 34.11886 | -118.14779 | 6997 ft | 199 kts | 110° |
| 2026-05-07 05:31 | 34.11408 | -118.13214 | 6999 ft | 198 kts | 110° |
| 2026-05-07 05:32 | 34.10930 | -118.11653 | 7000 ft | 198 kts | 110° |
| 2026-05-07 05:32 | 34.10451 | -118.10097 | 6986 ft | 198 kts | 110° |
| 2026-05-07 05:32 | 34.09975 | -118.08538 | 6989 ft | 198 kts | 110° |
| 2026-05-07 05:32 | 34.09496 | -118.06979 | 6984 ft | 198 kts | 110° |
| 2026-05-07 05:33 | 34.09018 | -118.05417 | 6989 ft | 198 kts | 110° |
| 2026-05-07 05:33 | 34.08539 | -118.03859 | 6989 ft | 198 kts | 110° |
| 2026-05-07 05:33 | 34.08060 | -118.02301 | 6989 ft | 199 kts | 110° |
| 2026-05-07 05:33 | 34.07577 | -118.00732 | 6990 ft | 199 kts | 110° |
| 2026-05-07 05:34 | 34.07096 | -117.99168 | 6990 ft | 199 kts | 110° |
| 2026-05-07 05:34 | 34.06624 | -117.97626 | 6990 ft | 199 kts | 110° |
| 2026-05-07 05:34 | 34.06142 | -117.96064 | 6990 ft | 198 kts | 110° |
| 2026-05-07 05:34 | 34.05662 | -117.94504 | 6985 ft | 199 kts | 110° |
| 2026-05-07 05:35 | 34.05180 | -117.92941 | 6990 ft | 199 kts | 110° |
| 2026-05-07 05:35 | 34.04698 | -117.91377 | 6987 ft | 198 kts | 110° |
| 2026-05-07 05:35 | 34.04217 | -117.89818 | 6989 ft | 199 kts | 110° |
| 2026-05-07 05:35 | 34.03735 | -117.88258 | 6991 ft | 198 kts | 110° |
| 2026-05-07 05:36 | 34.03255 | -117.86703 | 6995 ft | 197 kts | 110° |
| 2026-05-07 05:36 | 34.02774 | -117.85147 | 6994 ft | 198 kts | 110° |
| 2026-05-07 05:36 | 34.02152 | -117.83676 | 6991 ft | 197 kts | 130° |
| 2026-05-07 05:36 | 34.01038 | -117.82746 | 6993 ft | 197 kts | 161° |
| 2026-05-07 05:37 | 33.99687 | -117.82633 | 6998 ft | 196 kts | 192° |
| 2026-05-07 05:37 | 33.98418 | -117.83217 | 7005 ft | 195 kts | 205° |
| 2026-05-07 05:37 | 33.97171 | -117.83873 | 7009 ft | 195 kts | 203° |
| 2026-05-07 05:37 | 33.95929 | -117.84482 | 7005 ft | 196 kts | 202° |
| 2026-05-07 05:38 | 33.94663 | -117.85090 | 7011 ft | 196 kts | 202° |
| 2026-05-07 05:38 | 33.93400 | -117.85702 | 7007 ft | 196 kts | 203° |
| 2026-05-07 05:38 | 33.92131 | -117.86317 | 7005 ft | 197 kts | 203° |
| 2026-05-07 05:38 | 33.90858 | -117.86932 | 7008 ft | 196 kts | 203° |
| 2026-05-07 05:39 | 33.89589 | -117.87545 | 7008 ft | 197 kts | 202° |
| 2026-05-07 05:39 | 33.88320 | -117.88158 | 7008 ft | 196 kts | 203° |
| 2026-05-07 05:39 | 33.87050 | -117.88773 | 7009 ft | 197 kts | 202° |
| 2026-05-07 05:39 | 33.85779 | -117.89387 | 7010 ft | 197 kts | 202° |
| 2026-05-07 05:40 | 33.84509 | -117.89999 | 7009 ft | 197 kts | 202° |
| 2026-05-07 05:40 | 33.83233 | -117.90617 | 6999 ft | 198 kts | 203° |
| 2026-05-07 05:40 | 33.82110 | -117.91531 | 6997 ft | 195 kts | 230° |
| 2026-05-07 05:40 | 33.81518 | -117.92957 | 7001 ft | 193 kts | 255° |
| 2026-05-07 05:41 | 33.81181 | -117.94505 | 6997 ft | 187 kts | 256° |
| 2026-05-07 05:41 | 33.80815 | -117.96007 | 6727 ft | 187 kts | 253° |
| 2026-05-07 05:41 | 33.80426 | -117.97491 | 6424 ft | 185 kts | 253° |
| 2026-05-07 05:41 | 33.80038 | -117.98963 | 6121 ft | 183 kts | 253° |
| 2026-05-07 05:42 | 33.79658 | -118.00417 | 5826 ft | 182 kts | 253° |
| 2026-05-07 05:42 | 33.79278 | -118.01864 | 5522 ft | 181 kts | 253° |
| 2026-05-07 05:42 | 33.78901 | -118.03305 | 5227 ft | 180 kts | 253° |
| 2026-05-07 05:42 | 33.78523 | -118.04737 | 4931 ft | 179 kts | 252° |
| 2026-05-07 05:43 | 33.77872 | -118.05975 | 4617 ft | 180 kts | 223° |
| 2026-05-07 05:43 | 33.76743 | -118.06613 | 4314 ft | 182 kts | 189° |
| 2026-05-07 05:43 | 33.75496 | -118.06423 | 4009 ft | 183 kts | 157° |
| 2026-05-07 05:43 | 33.74434 | -118.05600 | 3719 ft | 181 kts | 146° |
| 2026-05-07 05:44 | 33.73318 | -118.04917 | 3408 ft | 181 kts | 162° |
| 2026-05-07 05:44 | 33.72076 | -118.04700 | 3036 ft | 182 kts | 188° |
| 2026-05-07 05:44 | 33.70925 | -118.05278 | 2670 ft | 181 kts | 221° |
| 2026-05-07 05:44 | 33.70272 | -118.06476 | 2587 ft | 165 kts | 256° |
| 2026-05-07 05:45 | 33.70226 | -118.07770 | 2578 ft | 152 kts | 282° |
| 2026-05-07 05:45 | 33.70649 | -118.08890 | 2574 ft | 145 kts | 308° |
| 2026-05-07 05:45 | 33.71408 | -118.09640 | 2573 ft | 141 kts | 333° |
| 2026-05-07 05:45 | 33.72339 | -118.09936 | 2571 ft | 138 kts | 357° |
| 2026-05-07 05:46 | 33.73269 | -118.09706 | 2571 ft | 137 kts | 22° |
| 2026-05-07 05:46 | 33.74064 | -118.09078 | 2571 ft | 139 kts | 34° |
| 2026-05-07 05:46 | 33.74877 | -118.08392 | 2597 ft | 145 kts | 33° |
| 2026-05-07 05:46 | 33.75722 | -118.07678 | 2610 ft | 152 kts | 34° |
| 2026-05-07 05:47 | 33.76597 | -118.06938 | 2603 ft | 156 kts | 34° |
| 2026-05-07 05:47 | 33.77190 | -118.06439 | 2600 ft | 157 kts | 34° |
| 2026-05-07 05:47 | 33.78095 | -118.05675 | 2601 ft | 159 kts | 34° |
| 2026-05-07 05:47 | 33.79309 | -118.04656 | 2442 ft | 163 kts | 34° |
| 2026-05-07 05:48 | 33.79942 | -118.04127 | 2319 ft | 165 kts | 34° |
| 2026-05-07 05:48 | 33.80883 | -118.03335 | 2140 ft | 165 kts | 34° |
| 2026-05-07 05:48 | 33.81804 | -118.02561 | 1958 ft | 162 kts | 34° |
| 2026-05-07 05:48 | 33.82728 | -118.01786 | 1772 ft | 162 kts | 34° |
| 2026-05-07 05:49 | 33.83654 | -118.01008 | 1548 ft | 163 kts | 34° |
| 2026-05-07 05:49 | 33.84588 | -118.00212 | 1295 ft | 165 kts | 34° |
| 2026-05-07 05:49 | 33.85494 | -117.99354 | 1014 ft | 168 kts | 47° |
| 2026-05-07 05:49 | 33.85970 | -117.98179 | 830 ft | 148 kts | 77° |
| 2026-05-07 05:50 | 33.86095 | -117.97047 | 829 ft | 127 kts | 85° |
| 2026-05-07 05:50 | 33.86171 | -117.96008 | 779 ft | 120 kts | 84° |
| 2026-05-07 05:50 | 33.86253 | -117.95036 | 783 ft | 113 kts | 78° |
| 2026-05-07 05:50 | 33.86711 | -117.94416 | 750 ft | 100 kts | 0° |
| 2026-05-07 05:51 | 33.87399 | -117.94646 | 587 ft | 105 kts | 317° |
| 2026-05-07 05:51 | 33.87649 | -117.95391 | 524 ft | 98 kts | 269° |
| 2026-05-07 05:51 | 33.87545 | -117.96187 | 412 ft | 96 kts | 257° |
| 2026-05-07 05:51 | 33.87395 | -117.96989 | 233 ft | 99 kts | 258° |
| 2026-05-07 05:52 | 33.87243 | -117.97772 | 100 ft | 86 kts | 257° |
| 2026-05-07 05:52 | 33.87158 | -117.98233 | 88 ft | 32 kts | 254° |
| 2026-05-07 05:52 | 33.87110 | -117.98331 | 85 ft | 9 kts | 170° |
| 2026-05-07 05:52 | 33.87087 | -117.98296 | 85 ft | 6 kts | 180° |
| 2026-05-07 05:53 | 33.87061 | -117.98300 | 86 ft | 1 kts | 230° |
| 2026-05-07 05:53 | 33.87060 | -117.98304 | 86 ft | 0 kts | 266° |